createdAt,value
2023-02-01T00:02:04.084Z,4.00
2023-02-01T00:04:31.949Z,3.57
2023-02-01T00:06:59.103Z,3.63
2023-02-01T00:09:26.265Z,3.43
2023-02-01T00:11:53.584Z,2.97
2023-02-01T00:14:20.752Z,3.10
2023-02-01T00:16:47.929Z,2.77
2023-02-01T00:19:16.277Z,3.00
2023-02-01T00:21:44.891Z,2.97
2023-02-01T00:24:12.540Z,3.30
2023-02-01T00:26:43.846Z,3.37
2023-02-01T00:29:13.419Z,3.00
2023-02-01T00:31:40.859Z,2.93
2023-02-01T00:34:09.837Z,9.60
2023-02-01T00:36:37.116Z,9.57
2023-02-01T00:39:04.491Z,4.97
2023-02-01T00:41:31.690Z,10.20
2023-02-01T00:43:58.818Z,4.53
2023-02-01T00:46:26.269Z,2.63
2023-02-01T00:48:53.639Z,2.30
2023-02-01T00:51:22.299Z,2.60
2023-02-01T00:53:49.816Z,2.50
2023-02-01T00:56:17.415Z,2.47
2023-02-01T00:58:46.022Z,2.93
2023-02-01T01:01:13.352Z,2.87
2023-02-01T01:03:42.175Z,2.60
2023-02-01T01:06:14.183Z,1.90
2023-02-01T01:08:42.204Z,2.80
2023-02-01T01:11:10.941Z,2.60
2023-02-01T01:13:38.542Z,2.00
2023-02-01T01:16:06.685Z,2.27
2023-02-01T01:18:34.703Z,2.30
2023-02-01T01:21:02.385Z,2.10
2023-02-01T01:23:29.687Z,2.03
2023-02-01T01:25:57.047Z,1.63
2023-02-01T01:28:24.751Z,2.30
2023-02-01T01:30:51.916Z,1.80
2023-02-01T01:33:19.151Z,2.37
2023-02-01T01:35:46.295Z,2.80
2023-02-01T01:38:13.571Z,4.77
2023-02-01T01:40:40.761Z,2.30
2023-02-01T01:43:15.151Z,4.47
2023-02-01T01:45:42.462Z,5.13
2023-02-01T01:48:29.990Z,4.43
2023-02-01T01:51:06.286Z,1.70
2023-02-01T01:53:35.513Z,1.70
2023-02-01T01:56:02.979Z,1.60
2023-02-01T01:58:31.881Z,1.70
2023-02-01T02:00:59.188Z,1.77
2023-02-01T02:03:35.382Z,1.40
2023-02-01T02:06:03.630Z,1.60
2023-02-01T02:08:31.182Z,1.73
2023-02-01T02:11:01.493Z,1.70
2023-02-01T02:13:34.123Z,1.70
2023-02-01T02:16:14.248Z,1.77
2023-02-01T02:19:00.440Z,1.90
2023-02-01T02:21:46.493Z,1.67
2023-02-01T02:24:29.171Z,1.60
2023-02-01T02:26:59.431Z,1.70
2023-02-01T02:29:38.778Z,2.00
2023-02-01T02:32:24.423Z,1.80
2023-02-01T02:34:59.150Z,2.00
2023-02-01T02:37:38.269Z,1.70
2023-02-01T02:40:07.599Z,2.00
2023-02-01T02:43:03.976Z,1.70
2023-02-01T02:46:01.387Z,1.90
2023-02-01T02:48:40.729Z,1.80
2023-02-01T02:51:45.872Z,2.17
2023-02-01T02:54:36.804Z,1.73
2023-02-01T02:57:24.455Z,1.90
2023-02-01T03:00:11.078Z,1.77
2023-02-01T03:02:57.665Z,2.03
2023-02-01T03:05:26.446Z,1.70
2023-02-01T03:08:04.695Z,1.77
2023-02-01T03:10:37.872Z,1.57
2023-02-01T03:13:07.429Z,1.77
2023-02-01T03:15:41.049Z,1.60
2023-02-01T03:18:20.770Z,1.80
2023-02-01T03:20:50.072Z,1.73
2023-02-01T03:23:18.748Z,1.73
2023-02-01T03:25:46.303Z,1.80
2023-02-01T03:28:13.578Z,2.00
2023-02-01T03:30:43.119Z,1.67
2023-02-01T03:33:21.954Z,1.87
2023-02-01T03:35:58.814Z,1.77
2023-02-01T03:38:34.902Z,1.43
2023-02-01T03:41:10.493Z,1.60
2023-02-01T03:43:41.321Z,1.90
2023-02-01T03:46:10.866Z,1.70
2023-02-01T03:48:39.219Z,1.97
2023-02-01T03:51:08.436Z,1.70
2023-02-01T03:53:37.530Z,1.80
2023-02-01T03:56:05.044Z,1.80
2023-02-01T03:58:32.393Z,2.20
2023-02-01T04:01:01.021Z,1.80
2023-02-01T04:03:28.967Z,2.07
2023-02-01T04:05:57.160Z,2.03
2023-02-01T04:08:24.896Z,2.00
2023-02-01T04:10:52.365Z,2.20
2023-02-01T04:13:20.678Z,1.80
2023-02-01T04:15:50.808Z,2.00
2023-02-01T04:18:18.038Z,14.03
2023-02-01T04:20:46.028Z,4.67
2023-02-01T04:23:13.234Z,2.10
2023-02-01T04:25:41.533Z,2.07
2023-02-01T04:28:09.290Z,2.07
2023-02-01T04:30:36.726Z,1.80
2023-02-01T04:33:07.143Z,1.87
2023-02-01T04:35:34.323Z,2.00
2023-02-01T04:38:02.071Z,2.00
2023-02-01T04:40:29.326Z,2.33
2023-02-01T04:42:56.470Z,1.93
2023-02-01T04:45:23.633Z,1.70
2023-02-01T04:47:50.776Z,2.00
2023-02-01T04:50:18.195Z,1.70
2023-02-01T04:52:48.569Z,1.67
2023-02-01T04:55:15.787Z,1.80
2023-02-01T04:57:42.971Z,1.77
2023-02-01T05:00:12.080Z,1.80
2023-02-01T05:02:39.181Z,1.50
2023-02-01T05:05:06.668Z,1.80
2023-02-01T05:07:34.090Z,1.80
2023-02-01T05:10:01.202Z,2.70
2023-02-01T05:12:47.111Z,1.80
2023-02-01T05:15:14.638Z,1.77
2023-02-01T05:17:41.791Z,1.87
2023-02-01T05:20:09.787Z,1.67
2023-02-01T05:22:36.953Z,1.77
2023-02-01T05:25:04.225Z,1.80
2023-02-01T05:27:31.976Z,1.67
2023-02-01T05:29:59.112Z,3.70
2023-02-01T05:32:26.538Z,1.93
2023-02-01T05:34:53.732Z,1.93
2023-02-01T05:37:20.896Z,2.20
2023-02-01T05:39:48.085Z,2.57
2023-02-01T05:42:15.223Z,2.10
2023-02-01T05:44:42.440Z,2.90
2023-02-01T05:47:09.601Z,2.20
2023-02-01T05:49:36.761Z,2.00
2023-02-01T05:52:03.942Z,1.80
2023-02-01T05:54:31.069Z,1.90
2023-02-01T05:56:58.301Z,1.90
2023-02-01T05:59:25.547Z,2.00
2023-02-01T06:01:52.746Z,1.60
2023-02-01T06:04:19.850Z,1.60
2023-02-01T06:06:47.034Z,1.90
2023-02-01T06:09:14.159Z,2.10
2023-02-01T06:11:42.312Z,1.80
2023-02-01T06:14:09.509Z,3.07
2023-02-01T06:16:36.667Z,1.97
2023-02-01T06:19:03.870Z,2.07
2023-02-01T06:21:31.047Z,3.17
2023-02-01T06:23:59.242Z,3.83
2023-02-01T06:26:26.558Z,1.87
2023-02-01T06:28:53.988Z,1.80
2023-02-01T06:31:21.328Z,1.87
2023-02-01T06:33:49.828Z,2.07
2023-02-01T06:36:17.108Z,2.03
2023-02-01T06:38:44.529Z,1.80
2023-02-01T06:41:12.113Z,1.90
2023-02-01T06:43:39.319Z,2.30
2023-02-01T06:46:08.108Z,2.00
2023-02-01T06:48:35.646Z,1.57
2023-02-01T06:51:03.062Z,1.60
2023-02-01T06:53:30.501Z,2.10
2023-02-01T06:55:59.140Z,2.17
2023-02-01T06:58:29.391Z,4.10
2023-02-01T07:00:56.622Z,1.73
2023-02-01T07:03:23.807Z,2.07
2023-02-01T07:05:50.952Z,2.13
2023-02-01T07:08:18.170Z,1.90
2023-02-01T07:10:45.476Z,1.90
2023-02-01T07:13:12.669Z,2.10
2023-02-01T07:15:39.781Z,2.00
2023-02-01T07:18:06.960Z,2.23
2023-02-01T07:20:34.168Z,2.00
2023-02-01T07:23:01.336Z,1.90
2023-02-01T07:25:28.515Z,1.97
2023-02-01T07:27:55.621Z,2.00
2023-02-01T07:30:23.007Z,1.83
2023-02-01T07:32:50.436Z,2.23
2023-02-01T07:35:17.754Z,2.20
2023-02-01T07:37:44.892Z,2.17
2023-02-01T07:40:12.581Z,1.80
2023-02-01T07:42:39.714Z,1.93
2023-02-01T07:45:20.390Z,2.30
2023-02-01T07:47:48.437Z,2.00
2023-02-01T07:50:15.682Z,3.07
2023-02-01T07:52:42.960Z,5.00
2023-02-01T07:55:10.481Z,2.20
2023-02-01T07:57:37.642Z,2.40
2023-02-01T08:00:24.778Z,2.20
2023-02-01T08:02:52.024Z,2.63
2023-02-01T08:05:19.191Z,2.03
2023-02-01T08:07:50.212Z,2.70
2023-02-01T08:10:17.819Z,3.20
2023-02-01T08:12:48.767Z,2.33
2023-02-01T08:15:19.271Z,3.23
2023-02-01T08:17:49.986Z,2.20
2023-02-01T08:20:17.443Z,2.43
2023-02-01T08:22:44.564Z,2.33
2023-02-01T08:25:12.513Z,2.90
2023-02-01T08:27:39.843Z,6.23
2023-02-01T08:30:08.315Z,2.50
2023-02-01T08:32:36.449Z,2.13
2023-02-01T08:35:04.190Z,1.87
2023-02-01T08:37:31.797Z,2.10
2023-02-01T08:39:59.065Z,3.23
2023-02-01T08:42:44.937Z,2.10
2023-02-01T08:45:12.372Z,2.80
2023-02-01T08:47:39.552Z,2.30
2023-02-01T08:50:06.948Z,2.70
2023-02-01T08:52:34.151Z,3.57
2023-02-01T08:55:01.352Z,2.50
2023-02-01T08:57:28.517Z,2.53
2023-02-01T08:59:55.756Z,3.90
2023-02-01T09:02:22.958Z,3.50
2023-02-01T09:04:50.075Z,2.83
2023-02-01T09:07:18.765Z,3.50
2023-02-01T09:09:46.556Z,4.33
2023-02-01T09:12:13.789Z,3.93
2023-02-01T09:14:40.940Z,4.97
2023-02-01T09:17:08.166Z,3.13
2023-02-01T09:19:35.401Z,4.90
2023-02-01T09:22:02.568Z,7.03
2023-02-01T09:24:29.737Z,3.47
2023-02-01T09:26:56.875Z,2.40
2023-02-01T09:29:24.053Z,2.90
2023-02-01T09:32:02.808Z,5.17
2023-02-01T09:34:31.614Z,5.77
2023-02-01T09:36:58.767Z,3.30
2023-02-01T09:39:26.065Z,2.77
2023-02-01T09:41:57.569Z,4.43
2023-02-01T09:44:43.793Z,4.70
2023-02-01T09:47:16.194Z,3.43
2023-02-01T09:50:09.717Z,5.73
2023-02-01T09:52:47.580Z,4.17
2023-02-01T09:55:25.607Z,7.57
2023-02-01T09:57:57.066Z,6.20
2023-02-01T10:00:29.368Z,6.43
2023-02-01T10:02:57.253Z,9.20
2023-02-01T10:05:40.875Z,7.07
2023-02-01T10:08:24.276Z,3.93
2023-02-01T10:10:51.886Z,3.60
2023-02-01T10:13:34.566Z,5.70
2023-02-01T10:16:01.958Z,5.00
2023-02-01T10:18:29.159Z,5.23
2023-02-01T10:20:56.267Z,5.37
2023-02-01T10:23:35.995Z,4.23
2023-02-01T10:26:25.619Z,7.73
2023-02-01T10:29:00.603Z,10.47
2023-02-01T10:31:30.220Z,4.30
2023-02-01T10:33:58.965Z,8.23
2023-02-01T10:36:42.180Z,6.07
2023-02-01T10:39:12.821Z,8.00
2023-02-01T10:41:41.036Z,4.57
2023-02-01T10:44:12.649Z,5.27
2023-02-01T10:46:39.833Z,6.20
2023-02-01T10:49:08.081Z,4.73
2023-02-01T10:51:45.256Z,9.73
2023-02-01T10:54:15.442Z,7.90
2023-02-01T10:56:45.452Z,8.13
2023-02-01T10:59:25.350Z,6.70
2023-02-01T11:01:59.984Z,5.40
2023-02-01T11:04:27.742Z,11.40
2023-02-01T11:06:56.996Z,9.27
2023-02-01T11:09:25.937Z,6.80
2023-02-01T11:11:53.315Z,7.13
2023-02-01T11:14:26.329Z,6.30
2023-02-01T11:16:53.438Z,4.13
2023-02-01T11:19:20.928Z,6.27
2023-02-01T11:21:55.391Z,10.87
2023-02-01T11:24:25.400Z,6.00
2023-02-01T11:26:53.822Z,5.30
2023-02-01T11:29:24.221Z,3.50
2023-02-01T11:31:51.643Z,4.90
2023-02-01T11:34:24.262Z,8.13
2023-02-01T11:36:53.992Z,7.23
2023-02-01T11:39:30.682Z,5.07
2023-02-01T11:42:13.660Z,11.13
2023-02-01T11:44:42.279Z,12.37
2023-02-01T11:47:24.863Z,9.90
2023-02-01T11:49:56.608Z,12.57
2023-02-01T11:52:36.142Z,9.57
2023-02-01T11:55:29.553Z,7.40
2023-02-01T11:57:56.721Z,6.53
2023-02-01T12:00:24.335Z,10.43
2023-02-01T12:03:10.092Z,5.30
2023-02-01T12:05:47.482Z,3.40
2023-02-01T12:08:33.204Z,4.67
2023-02-01T12:11:13.934Z,6.00
2023-02-01T12:13:44.170Z,3.80
2023-02-01T12:16:26.418Z,5.17
2023-02-01T12:18:53.578Z,5.57
2023-02-01T12:21:27.030Z,9.63
2023-02-01T12:23:59.887Z,13.07
2023-02-01T12:26:35.934Z,5.73
2023-02-01T12:29:23.530Z,7.07
2023-02-01T12:31:56.739Z,6.63
2023-02-01T12:34:42.672Z,8.83
2023-02-01T12:37:17.362Z,4.20
2023-02-01T12:40:07.579Z,6.63
2023-02-01T12:42:38.857Z,3.67
2023-02-01T12:45:15.444Z,6.00
2023-02-01T12:47:55.797Z,6.80
2023-02-01T12:50:29.690Z,6.47
2023-02-01T12:52:59.838Z,7.77
2023-02-01T12:55:35.954Z,5.67
2023-02-01T12:58:15.915Z,9.63
2023-02-01T13:00:46.468Z,4.47
2023-02-01T13:03:32.224Z,6.00
2023-02-01T13:05:59.487Z,7.93
2023-02-01T13:08:28.095Z,4.80
2023-02-01T13:11:01.169Z,11.20
2023-02-01T13:13:50.194Z,3.33
2023-02-01T13:16:30.145Z,6.93
2023-02-01T13:19:17.598Z,4.47
2023-02-01T13:21:49.159Z,7.57
2023-02-01T13:24:26.651Z,7.07
2023-02-01T13:26:55.772Z,11.43
2023-02-01T13:29:37.235Z,7.23
2023-02-01T13:32:18.642Z,4.13
2023-02-01T13:34:45.848Z,7.40
2023-02-01T13:37:31.642Z,9.83
2023-02-01T13:40:05.257Z,6.87
2023-02-01T13:42:33.875Z,4.73
2023-02-01T13:45:06.879Z,5.73
2023-02-01T13:47:36.716Z,10.80
2023-02-01T13:50:06.680Z,6.77
2023-02-01T13:52:38.047Z,6.97
2023-02-01T13:55:23.783Z,8.57
2023-02-01T13:57:52.562Z,4.43
2023-02-01T14:00:49.354Z,4.53
2023-02-01T14:03:18.953Z,9.67
2023-02-01T14:05:47.834Z,6.37
2023-02-01T14:08:16.170Z,6.93
2023-02-01T14:10:50.196Z,8.93
2023-02-01T14:13:29.258Z,6.77
2023-02-01T14:16:05.553Z,6.60
2023-02-01T14:18:39.112Z,8.87
2023-02-01T14:21:22.911Z,9.20
2023-02-01T14:23:56.704Z,10.07
2023-02-01T14:26:26.503Z,5.57
2023-02-01T14:29:01.919Z,10.43
2023-02-01T14:31:37.105Z,10.00
2023-02-01T14:34:10.704Z,10.53
2023-02-01T14:36:44.161Z,4.83
2023-02-01T14:39:26.950Z,5.13
2023-02-01T14:42:02.542Z,7.43
2023-02-01T14:44:34.422Z,6.93
2023-02-01T14:47:04.698Z,9.97
2023-02-01T14:49:35.478Z,17.40
2023-02-01T14:52:06.607Z,7.83
2023-02-01T14:54:33.830Z,7.53
2023-02-01T14:57:01.497Z,10.00
2023-02-01T14:59:34.291Z,9.10
2023-02-01T15:02:02.430Z,6.63
2023-02-01T15:04:29.780Z,11.67
2023-02-01T15:07:03.059Z,8.93
2023-02-01T15:09:31.637Z,9.43
2023-02-01T15:12:04.772Z,8.03
2023-02-01T15:14:43.786Z,9.20
2023-02-01T15:17:24.908Z,6.30
2023-02-01T15:19:55.832Z,8.63
2023-02-01T15:22:23.291Z,11.87
2023-02-01T15:24:55.048Z,11.83
2023-02-01T15:27:22.526Z,12.03
2023-02-01T15:29:50.665Z,13.40
2023-02-01T15:32:35.303Z,7.33
2023-02-01T15:35:03.456Z,12.33
2023-02-01T15:37:32.147Z,12.03
2023-02-01T15:40:08.666Z,12.47
2023-02-01T15:42:36.525Z,11.57
2023-02-01T15:45:03.711Z,11.67
2023-02-01T15:47:32.393Z,15.00
2023-02-01T15:50:01.397Z,25.03
2023-02-01T15:52:38.653Z,18.97
2023-02-01T15:55:07.936Z,9.03
2023-02-01T15:57:36.957Z,9.23
2023-02-01T16:00:21.628Z,17.27
2023-02-01T16:02:56.386Z,11.33
2023-02-01T16:05:34.401Z,6.57
2023-02-01T16:08:15.620Z,12.50
2023-02-01T16:10:44.069Z,7.27
2023-02-01T16:13:11.632Z,9.33
2023-02-01T16:15:38.982Z,8.13
2023-02-01T16:18:07.931Z,5.17
2023-02-01T16:20:36.231Z,7.40
2023-02-01T16:23:04.078Z,13.07
2023-02-01T16:25:31.361Z,10.10
2023-02-01T16:27:58.547Z,9.20
2023-02-01T16:30:25.961Z,9.77
2023-02-01T16:33:00.378Z,11.67
2023-02-01T16:35:32.329Z,5.80
2023-02-01T16:38:00.179Z,7.23
2023-02-01T16:40:27.345Z,11.00
2023-02-01T16:42:57.999Z,11.07
2023-02-01T16:45:25.496Z,7.70
2023-02-01T16:47:55.760Z,14.03
2023-02-01T16:50:24.528Z,5.63
2023-02-01T16:52:52.100Z,9.73
2023-02-01T16:55:21.031Z,10.63
2023-02-01T16:57:48.790Z,11.07
2023-02-01T17:00:25.470Z,9.60
2023-02-01T17:02:53.936Z,12.57
2023-02-01T17:05:21.421Z,8.00
2023-02-01T17:07:48.747Z,11.83
2023-02-01T17:10:32.687Z,8.60
2023-02-01T17:13:00.729Z,10.77
2023-02-01T17:15:29.419Z,13.67
2023-02-01T17:17:58.788Z,10.00
2023-02-01T17:20:28.477Z,7.23
2023-02-01T17:22:55.594Z,6.77
2023-02-01T17:25:23.717Z,6.47
2023-02-01T17:27:51.148Z,8.10
2023-02-01T17:30:18.844Z,8.50
2023-02-01T17:32:46.240Z,7.60
2023-02-01T17:35:20.057Z,10.53
2023-02-01T17:37:47.265Z,7.80
2023-02-01T17:40:14.515Z,9.27
2023-02-01T17:42:41.731Z,9.77
2023-02-01T17:45:32.559Z,13.37
2023-02-01T17:47:59.760Z,7.90
2023-02-01T17:50:28.910Z,9.83
2023-02-01T17:52:56.111Z,6.87
2023-02-01T17:55:25.576Z,7.70
2023-02-01T17:57:53.002Z,7.00
2023-02-01T18:00:20.844Z,5.80
2023-02-01T18:02:48.116Z,11.63
2023-02-01T18:05:30.311Z,20.23
2023-02-01T18:07:57.489Z,6.30
2023-02-01T18:10:24.700Z,6.37
2023-02-01T18:12:52.111Z,7.60
2023-02-01T18:15:20.945Z,9.47
2023-02-01T18:17:49.090Z,8.83
2023-02-01T18:20:17.745Z,10.30
2023-02-01T18:22:48.375Z,9.67
2023-02-01T18:25:30.167Z,8.90
2023-02-01T18:27:57.751Z,9.47
2023-02-01T18:30:26.003Z,7.37
2023-02-01T18:32:53.121Z,5.33
2023-02-01T18:35:27.988Z,12.17
2023-02-01T18:37:56.398Z,10.47
2023-02-01T18:40:25.412Z,5.67
2023-02-01T18:42:52.719Z,11.80
2023-02-01T18:45:26.342Z,6.90
2023-02-01T18:47:53.845Z,11.17
2023-02-01T18:50:21.389Z,7.00
2023-02-01T18:52:48.912Z,5.67
2023-02-01T18:55:16.096Z,9.30
2023-02-01T18:57:43.423Z,6.90
2023-02-01T19:00:11.833Z,9.90
2023-02-01T19:02:39.768Z,12.40
2023-02-01T19:05:08.374Z,6.97
2023-02-01T19:07:39.179Z,8.37
2023-02-01T19:10:07.069Z,7.47
2023-02-01T19:12:35.549Z,7.00
2023-02-01T19:15:02.661Z,9.67
2023-02-01T19:17:30.366Z,10.50
2023-02-01T19:20:00.336Z,10.27
2023-02-01T19:22:28.014Z,12.53
2023-02-01T19:24:55.247Z,8.97
2023-02-01T19:27:22.701Z,9.60
2023-02-01T19:29:50.043Z,6.80
2023-02-01T19:32:17.262Z,5.70
2023-02-01T19:34:44.588Z,8.90
2023-02-01T19:37:13.060Z,7.30
2023-02-01T19:39:41.873Z,10.07
2023-02-01T19:42:09.600Z,13.60
2023-02-01T19:44:36.984Z,7.73
2023-02-01T19:47:04.282Z,9.87
2023-02-01T19:49:31.446Z,9.80
2023-02-01T19:51:58.744Z,5.33
2023-02-01T19:54:26.303Z,6.67
2023-02-01T19:56:53.522Z,9.40
2023-02-01T19:59:22.882Z,5.97
2023-02-01T20:01:50.712Z,9.10
2023-02-01T20:04:19.830Z,6.47
2023-02-01T20:06:51.077Z,11.93
2023-02-01T20:09:22.945Z,5.97
2023-02-01T20:11:50.562Z,10.67
2023-02-01T20:14:17.822Z,7.53
2023-02-01T20:16:45.067Z,9.23
2023-02-01T20:19:12.672Z,5.80
2023-02-01T20:21:43.279Z,7.27
2023-02-01T20:24:13.091Z,9.33
2023-02-01T20:26:41.194Z,8.03
2023-02-01T20:29:09.844Z,8.97
2023-02-01T20:31:37.391Z,9.13
2023-02-01T20:34:04.833Z,7.13
2023-02-01T20:36:32.702Z,4.77
2023-02-01T20:38:59.958Z,4.40
2023-02-01T20:41:27.352Z,8.87
2023-02-01T20:43:54.955Z,6.20
2023-02-01T20:46:22.367Z,7.67
2023-02-01T20:48:50.960Z,6.73
2023-02-01T20:51:19.428Z,4.87
2023-02-01T20:53:53.682Z,7.77
2023-02-01T20:56:21.497Z,6.43
2023-02-01T20:58:48.705Z,11.07
2023-02-01T21:01:16.861Z,5.67
2023-02-01T21:03:44.246Z,8.03
2023-02-01T21:06:12.776Z,7.83
2023-02-01T21:08:41.387Z,7.40
2023-02-01T21:11:10.792Z,7.47
2023-02-01T21:13:43.062Z,8.07
2023-02-01T21:16:12.096Z,4.90
2023-02-01T21:18:39.852Z,6.90
2023-02-01T21:21:08.132Z,8.77
2023-02-01T21:23:45.228Z,5.90
2023-02-01T21:26:17.736Z,5.83
2023-02-01T21:28:45.100Z,6.33
2023-02-01T21:31:13.984Z,10.37
2023-02-01T21:33:41.265Z,7.20
2023-02-01T21:36:08.661Z,10.93
2023-02-01T21:38:36.256Z,10.10
2023-02-01T21:41:21.919Z,7.23
2023-02-01T21:43:49.117Z,8.50
2023-02-01T21:46:18.051Z,9.00
2023-02-01T21:49:05.446Z,10.77
2023-02-01T21:51:34.979Z,12.03
2023-02-01T21:54:02.168Z,7.10
2023-02-01T21:56:29.357Z,10.60
2023-02-01T21:58:56.467Z,8.87
2023-02-01T22:01:24.129Z,7.90
2023-02-01T22:03:51.517Z,7.53
2023-02-01T22:06:29.386Z,11.83
2023-02-01T22:08:56.605Z,9.23
2023-02-01T22:11:23.860Z,8.07
2023-02-01T22:13:51.256Z,10.40
2023-02-01T22:16:21.358Z,4.67
2023-02-01T22:18:49.478Z,6.93
2023-02-01T22:21:16.646Z,6.23
2023-02-01T22:23:43.843Z,13.47
2023-02-01T22:26:12.981Z,6.03
2023-02-01T22:28:40.686Z,10.60
2023-02-01T22:31:08.766Z,7.67
2023-02-01T22:33:36.186Z,5.03
2023-02-01T22:36:03.902Z,8.77
2023-02-01T22:38:31.953Z,11.60
2023-02-01T22:41:00.002Z,7.00
2023-02-01T22:43:27.758Z,7.53
2023-02-01T22:45:55.045Z,6.60
2023-02-01T22:48:23.017Z,10.47
2023-02-01T22:50:50.116Z,6.23
2023-02-01T22:53:19.586Z,3.70
2023-02-01T22:55:46.729Z,9.27
2023-02-01T22:58:13.952Z,6.50
2023-02-01T23:00:41.172Z,8.63
2023-02-01T23:03:08.362Z,5.80
2023-02-01T23:05:35.520Z,8.17
2023-02-01T23:08:02.770Z,7.83
2023-02-01T23:10:29.893Z,4.13
2023-02-01T23:12:57.052Z,6.43
2023-02-01T23:15:24.707Z,9.90
2023-02-01T23:17:52.396Z,7.00
2023-02-01T23:20:20.370Z,8.60
2023-02-01T23:22:48.405Z,7.77
2023-02-01T23:25:16.563Z,10.33
2023-02-01T23:27:44.315Z,7.97
2023-02-01T23:30:12.299Z,7.40
2023-02-01T23:32:39.676Z,5.37
2023-02-01T23:35:08.734Z,8.40
2023-02-01T23:37:36.007Z,8.43
2023-02-01T23:40:03.256Z,9.33
2023-02-01T23:42:30.513Z,4.97
2023-02-01T23:44:57.693Z,3.97
2023-02-01T23:47:24.954Z,5.77
2023-02-01T23:49:52.131Z,3.47
2023-02-01T23:52:19.273Z,7.43
2023-02-01T23:54:47.456Z,4.23
2023-02-01T23:57:14.609Z,7.30
2023-02-01T23:59:41.732Z,7.13
